createdAt,value
2023-05-02T00:01:32.946Z,12.58
2023-05-02T00:11:35.409Z,12.52
2023-05-02T00:21:39.096Z,12.54
2023-05-02T00:31:41.941Z,12.59
2023-05-02T00:41:45.794Z,12.42
2023-05-02T00:51:48.241Z,12.44
2023-05-02T01:01:56.263Z,12.36
2023-05-02T01:12:03.946Z,12.32
2023-05-02T01:22:09.863Z,12.36
2023-05-02T01:32:16.035Z,12.38
2023-05-02T01:42:19.101Z,12.26
2023-05-02T01:52:23.964Z,12.21
2023-05-02T02:02:27.910Z,12.04
2023-05-02T02:12:36.667Z,12.01
2023-05-02T02:22:40.310Z,11.83
2023-05-02T02:32:44.044Z,11.88
2023-05-02T02:42:49.229Z,11.91
2023-05-02T02:52:56.544Z,11.90
2023-05-02T03:02:59.116Z,11.68
2023-05-02T03:13:02.878Z,11.69
2023-05-02T03:23:05.319Z,11.61
2023-05-02T03:33:09.766Z,11.71
2023-05-02T03:43:12.590Z,11.53
2023-05-02T03:53:17.106Z,11.55
2023-05-02T04:03:19.582Z,11.78
2023-05-02T04:13:23.367Z,11.76
2023-05-02T04:23:25.794Z,11.76
2023-05-02T04:33:30.154Z,11.79
2023-05-02T04:43:32.603Z,11.78
2023-05-02T04:53:36.417Z,11.64
2023-05-02T05:03:38.975Z,11.49
2023-05-02T05:13:43.148Z,11.46
2023-05-02T05:23:46.332Z,11.42
2023-05-02T05:33:50.224Z,11.63
2023-05-02T05:43:52.616Z,11.81
2023-05-02T05:53:56.382Z,11.81
2023-05-02T06:03:59.055Z,11.76
2023-05-02T06:14:02.809Z,11.78
2023-05-02T06:24:05.680Z,11.94
2023-05-02T06:34:09.481Z,11.89
2023-05-02T06:44:11.890Z,12.31
2023-05-02T06:54:15.876Z,12.26
2023-05-02T07:04:18.318Z,12.31
2023-05-02T07:14:22.234Z,12.54
2023-05-02T07:24:24.634Z,12.51
2023-05-02T07:34:28.397Z,12.46
2023-05-02T07:44:30.845Z,12.57
2023-05-02T07:54:35.492Z,12.84
2023-05-02T08:04:37.976Z,13.06
2023-05-02T08:14:41.738Z,13.14
2023-05-02T08:24:44.103Z,13.24
2023-05-02T08:34:47.842Z,13.50
2023-05-02T08:44:50.320Z,13.59
2023-05-02T08:54:54.526Z,13.68
2023-05-02T09:04:59.150Z,13.82
2023-05-02T09:15:13.511Z,14.27
2023-05-02T09:25:16.070Z,14.31
2023-05-02T09:35:23.724Z,14.77
2023-05-02T09:45:26.854Z,14.93
2023-05-02T09:55:31.079Z,15.08
2023-05-02T10:05:34.071Z,15.18
2023-05-02T10:15:38.646Z,15.49
2023-05-02T10:25:41.094Z,15.45
2023-05-02T10:35:46.914Z,16.06
2023-05-02T10:45:49.368Z,15.79
2023-05-02T10:56:10.835Z,15.85
2023-05-02T11:06:14.644Z,16.61
2023-05-02T11:16:17.447Z,17.13
2023-05-02T11:26:26.087Z,16.76
2023-05-02T11:36:29.686Z,16.81
2023-05-02T11:46:33.740Z,16.74
2023-05-02T11:56:36.247Z,17.04
2023-05-02T12:06:40.142Z,16.88
2023-05-02T12:16:42.877Z,17.70
2023-05-02T12:26:47.249Z,17.64
2023-05-02T12:36:49.692Z,16.79
2023-05-02T12:47:02.548Z,17.13
2023-05-02T12:57:05.623Z,18.11
2023-05-02T13:07:09.403Z,17.34
2023-05-02T13:17:12.042Z,16.90
2023-05-02T13:27:18.347Z,16.76
2023-05-02T13:37:20.794Z,16.91
2023-05-02T13:47:24.647Z,18.31
2023-05-02T13:57:27.106Z,18.07
2023-05-02T14:07:30.906Z,18.48
2023-05-02T14:17:33.451Z,19.95
2023-05-02T14:27:37.190Z,19.75
2023-05-02T14:37:39.693Z,19.43
2023-05-02T14:47:43.724Z,18.81
2023-05-02T14:57:46.244Z,18.00
2023-05-02T15:07:50.086Z,17.61
2023-05-02T15:17:52.955Z,17.56
2023-05-02T15:27:56.883Z,17.33
2023-05-02T15:37:59.735Z,17.59
2023-05-02T15:48:03.497Z,17.05
2023-05-02T15:58:06.173Z,18.04
2023-05-02T16:08:09.976Z,18.50
2023-05-02T16:18:12.586Z,18.58
2023-05-02T16:28:16.418Z,18.14
2023-05-02T16:38:19.200Z,18.31
2023-05-02T16:48:23.234Z,18.04
2023-05-02T16:58:25.742Z,17.91
2023-05-02T17:08:30.415Z,17.77
2023-05-02T17:18:34.426Z,17.50
2023-05-02T17:28:39.617Z,17.35
2023-05-02T17:38:42.042Z,17.11
2023-05-02T17:48:46.096Z,16.87
2023-05-02T17:58:48.607Z,16.73
2023-05-02T18:08:52.539Z,16.38
2023-05-02T18:18:55.064Z,16.00
2023-05-02T18:28:58.894Z,15.74
2023-05-02T18:39:01.508Z,15.50
2023-05-02T18:49:05.493Z,15.19
2023-05-02T18:59:08.237Z,15.02
2023-05-02T19:09:13.601Z,14.74
2023-05-02T19:19:17.464Z,14.58
2023-05-02T19:29:21.271Z,14.49
2023-05-02T19:39:23.738Z,14.32
2023-05-02T19:49:27.677Z,14.13
2023-05-02T19:59:30.320Z,14.01
2023-05-02T20:09:34.381Z,13.79
2023-05-02T20:19:36.835Z,13.78
2023-05-02T20:29:40.735Z,13.61
2023-05-02T20:39:43.377Z,13.60
2023-05-02T20:49:49.170Z,13.55
2023-05-02T20:59:51.927Z,13.42
2023-05-02T21:09:59.920Z,13.38
2023-05-02T21:20:03.081Z,13.39
2023-05-02T21:30:08.001Z,13.29
2023-05-02T21:40:11.193Z,13.15
2023-05-02T21:50:14.989Z,13.24
2023-05-02T22:00:17.576Z,13.12
2023-05-02T22:10:21.467Z,12.92
2023-05-02T22:20:24.777Z,13.01
2023-05-02T22:30:28.592Z,13.04
2023-05-02T22:40:31.548Z,12.81
2023-05-02T22:50:35.167Z,12.70
2023-05-02T23:00:39.041Z,12.58
2023-05-02T23:10:41.557Z,12.44
2023-05-02T23:20:45.372Z,12.47
2023-05-02T23:30:48.079Z,12.37
2023-05-02T23:40:52.543Z,12.33
2023-05-02T23:50:55.074Z,12.05
